sensor_id;sensor_type;location;lat;lon;timestamp;pressure;altitude;pressure_sealevel;temperature;humidity
12781;BME280;6454;43.304;24.344;2023-03-01T00:00:00;101274.31;;;6.42;100.00
12781;BME280;6454;43.304;24.344;2023-03-01T00:02:28;101266.34;;;6.35;100.00
12781;BME280;6454;43.304;24.344;2023-03-01T00:04:55;101269.16;;;6.40;100.00
12781;BME280;6454;43.304;24.344;2023-03-01T00:07:21;101266.94;;;6.37;100.00
12781;BME280;6454;43.304;24.344;2023-03-01T00:09:48;101254.94;;;6.33;100.00
12781;BME280;6454;43.304;24.344;2023-03-01T00:12:16;101258.13;;;6.42;100.00
12781;BME280;6454;43.304;24.344;2023-03-01T00:14:43;101262.84;;;6.46;100.00
12781;BME280;6454;43.304;24.344;2023-03-01T00:17:10;101258.03;;;6.48;100.00
12781;BME280;6454;43.304;24.344;2023-03-01T00:19:37;101251.22;;;6.34;100.00
12781;BME280;6454;43.304;24.344;2023-03-01T00:22:04;101255.00;;;6.45;100.00
12781;BME280;6454;43.304;24.344;2023-03-01T00:24:30;101256.50;;;6.41;100.00
12781;BME280;6454;43.304;24.344;2023-03-01T00:26:57;101239.41;;;6.35;100.00
12781;BME280;6454;43.304;24.344;2023-03-01T00:29:25;101237.03;;;6.39;100.00
12781;BME280;6454;43.304;24.344;2023-03-01T00:31:52;101238.44;;;6.41;100.00
12781;BME280;6454;43.304;24.344;2023-03-01T00:34:19;101229.41;;;6.36;100.00
12781;BME280;6454;43.304;24.344;2023-03-01T00:36:46;101224.72;;;6.31;100.00
12781;BME280;6454;43.304;24.344;2023-03-01T00:39:14;101215.59;;;6.32;100.00
12781;BME280;6454;43.304;24.344;2023-03-01T00:41:41;101217.47;;;6.32;100.00
12781;BME280;6454;43.304;24.344;2023-03-01T00:44:09;101212.66;;;6.34;100.00
12781;BME280;6454;43.304;24.344;2023-03-01T00:46:37;101210.22;;;6.32;100.00
12781;BME280;6454;43.304;24.344;2023-03-01T00:49:04;101206.69;;;6.32;100.00
12781;BME280;6454;43.304;24.344;2023-03-01T00:51:31;101202.00;;;6.39;100.00
12781;BME280;6454;43.304;24.344;2023-03-01T00:54:00;101204.38;;;6.47;100.00
12781;BME280;6454;43.304;24.344;2023-03-01T00:56:27;101189.47;;;6.44;100.00
12781;BME280;6454;43.304;24.344;2023-03-01T00:58:55;101194.63;;;6.34;100.00
12781;BME280;6454;43.304;24.344;2023-03-01T01:01:23;101185.50;;;6.35;100.00
12781;BME280;6454;43.304;24.344;2023-03-01T01:03:55;101194.25;;;6.31;100.00
12781;BME280;6454;43.304;24.344;2023-03-01T01:06:24;101195.09;;;6.31;100.00
12781;BME280;6454;43.304;24.344;2023-03-01T01:08:53;101184.19;;;6.26;100.00
12781;BME280;6454;43.304;24.344;2023-03-01T01:11:21;101185.59;;;6.29;100.00
12781;BME280;6454;43.304;24.344;2023-03-01T01:13:49;101186.16;;;6.31;100.00
12781;BME280;6454;43.304;24.344;2023-03-01T01:16:17;101190.16;;;6.28;100.00
12781;BME280;6454;43.304;24.344;2023-03-01T01:18:44;101164.16;;;6.22;100.00
12781;BME280;6454;43.304;24.344;2023-03-01T01:21:14;101171.28;;;6.28;100.00
12781;BME280;6454;43.304;24.344;2023-03-01T01:23:42;101168.97;;;6.32;100.00
12781;BME280;6454;43.304;24.344;2023-03-01T01:26:12;101170.94;;;6.36;100.00
12781;BME280;6454;43.304;24.344;2023-03-01T01:28:39;101168.13;;;6.31;100.00
12781;BME280;6454;43.304;24.344;2023-03-01T01:31:06;101147.28;;;6.15;100.00
12781;BME280;6454;43.304;24.344;2023-03-01T01:33:33;101142.81;;;6.09;100.00
12781;BME280;6454;43.304;24.344;2023-03-01T01:36:00;101180.91;;;6.36;100.00
12781;BME280;6454;43.304;24.344;2023-03-01T01:38:28;101182.19;;;6.33;100.00
12781;BME280;6454;43.304;24.344;2023-03-01T01:40:55;101182.69;;;6.30;100.00
12781;BME280;6454;43.304;24.344;2023-03-01T01:43:23;101176.81;;;6.33;100.00
12781;BME280;6454;43.304;24.344;2023-03-01T01:45:51;101165.44;;;6.31;100.00
12781;BME280;6454;43.304;24.344;2023-03-01T01:48:21;101096.38;;;5.84;100.00
12781;BME280;6454;43.304;24.344;2023-03-01T01:50:54;101172.94;;;6.29;100.00
12781;BME280;6454;43.304;24.344;2023-03-01T01:53:23;101169.09;;;6.25;100.00
12781;BME280;6454;43.304;24.344;2023-03-01T01:55:54;101177.16;;;6.25;100.00
12781;BME280;6454;43.304;24.344;2023-03-01T01:58:24;101103.91;;;5.94;100.00
12781;BME280;6454;43.304;24.344;2023-03-01T02:00:53;101171.19;;;6.35;100.00
12781;BME280;6454;43.304;24.344;2023-03-01T02:03:23;101128.06;;;6.00;100.00
12781;BME280;6454;43.304;24.344;2023-03-01T02:05:57;101173.53;;;6.31;100.00
12781;BME280;6454;43.304;24.344;2023-03-01T02:08:29;101178.22;;;6.36;100.00
12781;BME280;6454;43.304;24.344;2023-03-01T02:10:59;101164.63;;;6.19;100.00
12781;BME280;6454;43.304;24.344;2023-03-01T02:13:26;101186.19;;;6.42;100.00
12781;BME280;6454;43.304;24.344;2023-03-01T02:15:54;101180.09;;;6.35;100.00
12781;BME280;6454;43.304;24.344;2023-03-01T02:18:22;101180.31;;;6.34;100.00
12781;BME280;6454;43.304;24.344;2023-03-01T02:21:00;101175.63;;;6.29;100.00
12781;BME280;6454;43.304;24.344;2023-03-01T02:23:29;101178.91;;;6.31;100.00
12781;BME280;6454;43.304;24.344;2023-03-01T02:26:01;101133.13;;;6.08;100.00
12781;BME280;6454;43.304;24.344;2023-03-01T02:28:35;101180.31;;;6.34;100.00
12781;BME280;6454;43.304;24.344;2023-03-01T02:31:05;101175.50;;;6.36;100.00
12781;BME280;6454;43.304;24.344;2023-03-01T02:33:51;101176.72;;;6.40;100.00
12781;BME280;6454;43.304;24.344;2023-03-01T02:36:20;101171.31;;;6.40;100.00
12781;BME280;6454;43.304;24.344;2023-03-01T02:38:50;101165.56;;;6.36;100.00
12781;BME280;6454;43.304;24.344;2023-03-01T02:41:19;101177.06;;;6.32;100.00
12781;BME280;6454;43.304;24.344;2023-03-01T02:43:49;101170.84;;;6.31;100.00
12781;BME280;6454;43.304;24.344;2023-03-01T02:46:18;101175.28;;;6.26;100.00
12781;BME280;6454;43.304;24.344;2023-03-01T02:48:47;101171.28;;;6.28;100.00
12781;BME280;6454;43.304;24.344;2023-03-01T09:36:18;101174.66;;;7.05;99.42
12781;BME280;6454;43.304;24.344;2023-03-01T09:38:46;101174.16;;;7.08;98.97
12781;BME280;6454;43.304;24.344;2023-03-01T09:41:38;101174.75;;;6.98;99.08
12781;BME280;6454;43.304;24.344;2023-03-01T09:44:13;101178.41;;;7.04;98.81
12781;BME280;6454;43.304;24.344;2023-03-01T09:46:44;101170.78;;;7.01;98.50
12781;BME280;6454;43.304;24.344;2023-03-01T09:49:15;101124.63;;;6.74;98.34
12781;BME280;6454;43.304;24.344;2023-03-01T09:51:54;101172.44;;;7.02;98.71
12781;BME280;6454;43.304;24.344;2023-03-01T09:54:21;101175.00;;;6.97;98.75
12781;BME280;6454;43.304;24.344;2023-03-01T09:56:57;101171.13;;;7.04;98.33
12781;BME280;6454;43.304;24.344;2023-03-01T09:59:29;101165.28;;;6.96;98.92
12781;BME280;6454;43.304;24.344;2023-03-01T10:02:02;101165.28;;;6.96;99.52
12781;BME280;6454;43.304;24.344;2023-03-01T10:04:41;101169.94;;;7.12;98.48
12781;BME280;6454;43.304;24.344;2023-03-01T10:07:21;101163.03;;;7.04;98.76
12781;BME280;6454;43.304;24.344;2023-03-01T10:09:53;101164.19;;;7.08;99.14
12781;BME280;6454;43.304;24.344;2023-03-01T10:12:24;101173.69;;;7.11;98.88
12781;BME280;6454;43.304;24.344;2023-03-01T10:14:55;101169.94;;;7.12;98.10
12781;BME280;6454;43.304;24.344;2023-03-01T10:17:32;101167.47;;;7.10;98.53
12781;BME280;6454;43.304;24.344;2023-03-01T10:20:19;101113.69;;;6.81;98.45
12781;BME280;6454;43.304;24.344;2023-03-01T10:22:47;101161.38;;;7.15;98.17
12781;BME280;6454;43.304;24.344;2023-03-01T10:25:42;101155.53;;;7.06;98.06
12781;BME280;6454;43.304;24.344;2023-03-01T10:28:16;101156.13;;;6.97;99.34
12781;BME280;6454;43.304;24.344;2023-03-01T10:30:44;101147.69;;;6.93;99.83
12781;BME280;6454;43.304;24.344;2023-03-01T10:33:16;101147.47;;;6.95;100.00
12781;BME280;6454;43.304;24.344;2023-03-01T10:35:45;101150.28;;;7.00;99.70
12781;BME280;6454;43.304;24.344;2023-03-01T10:38:16;101146.13;;;7.09;99.01
12781;BME280;6454;43.304;24.344;2023-03-01T10:40:54;101127.75;;;6.94;98.96
12781;BME280;6454;43.304;24.344;2023-03-01T10:43:24;101156.25;;;7.02;100.00
12781;BME280;6454;43.304;24.344;2023-03-01T10:45:51;101111.63;;;6.83;99.83
12781;BME280;6454;43.304;24.344;2023-03-01T10:48:20;101131.50;;;7.05;99.57
12781;BME280;6454;43.304;24.344;2023-03-01T10:51:04;101104.00;;;6.68;99.80
12781;BME280;6454;43.304;24.344;2023-03-01T10:53:35;101125.06;;;6.94;100.00
12781;BME280;6454;43.304;24.344;2023-03-01T10:56:06;101134.09;;;7.00;100.00
12781;BME280;6454;43.304;24.344;2023-03-01T10:58:36;101119.91;;;6.93;100.00
12781;BME280;6454;43.304;24.344;2023-03-01T11:01:04;100951.00;;;5.84;100.00
12781;BME280;6454;43.304;24.344;2023-03-01T11:03:33;101118.84;;;6.94;100.00
12781;BME280;6454;43.304;24.344;2023-03-01T11:06:04;101119.78;;;6.99;100.00
12781;BME280;6454;43.304;24.344;2023-03-01T11:08:36;101117.78;;;6.95;100.00
12781;BME280;6454;43.304;24.344;2023-03-01T11:13:56;101103.03;;;6.86;100.00
12781;BME280;6454;43.304;24.344;2023-03-01T11:16:31;101108.63;;;6.96;100.00
12781;BME280;6454;43.304;24.344;2023-03-01T11:19:03;101087.91;;;6.85;100.00
12781;BME280;6454;43.304;24.344;2023-03-01T11:21:38;101095.63;;;6.93;100.00
12781;BME280;6454;43.304;24.344;2023-03-01T11:24:11;101097.72;;;7.02;100.00
12781;BME280;6454;43.304;24.344;2023-03-01T11:26:41;101095.25;;;7.01;100.00
12781;BME280;6454;43.304;24.344;2023-03-01T11:29:18;101076.34;;;7.01;99.94
12781;BME280;6454;43.304;24.344;2023-03-01T11:31:48;101079.47;;;6.93;100.00
12781;BME280;6454;43.304;24.344;2023-03-01T11:34:20;101080.41;;;6.87;100.00
12781;BME280;6454;43.304;24.344;2023-03-01T11:36:53;101078.75;;;6.86;100.00
12781;BME280;6454;43.304;24.344;2023-03-01T11:39:28;101076.50;;;6.94;100.00
12781;BME280;6454;43.304;24.344;2023-03-01T11:42:03;101061.56;;;7.03;100.00
12781;BME280;6454;43.304;24.344;2023-03-01T11:44:35;101065.28;;;7.14;100.00
12781;BME280;6454;43.304;24.344;2023-03-01T11:47:28;101065.03;;;7.15;100.00
12781;BME280;6454;43.304;24.344;2023-03-01T11:50:07;101066.78;;;7.22;99.36
12781;BME280;6454;43.304;24.344;2023-03-01T11:52:48;101051.03;;;7.30;98.60
12781;BME280;6454;43.304;24.344;2023-03-01T11:55:29;101045.03;;;7.28;99.70
12781;BME280;6454;43.304;24.344;2023-03-01T11:58:31;101050.41;;;7.28;100.00
12781;BME280;6454;43.304;24.344;2023-03-01T12:01:10;101042.41;;;7.33;99.51
12781;BME280;6454;43.304;24.344;2023-03-01T12:03:55;101038.66;;;7.34;99.83
12781;BME280;6454;43.304;24.344;2023-03-01T12:06:46;100989.47;;;6.99;99.61
12781;BME280;6454;43.304;24.344;2023-03-01T12:09:27;101046.13;;;7.44;98.72
12781;BME280;6454;43.304;24.344;2023-03-01T12:18:04;101045.19;;;7.38;100.00
12781;BME280;6454;43.304;24.344;2023-03-01T12:20:42;101042.50;;;7.38;99.13
12781;BME280;6454;43.304;24.344;2023-03-01T12:23:28;101037.53;;;7.30;98.60
12781;BME280;6454;43.304;24.344;2023-03-01T12:26:04;101037.91;;;7.22;99.00
12781;BME280;6454;43.304;24.344;2023-03-01T12:28:46;101036.63;;;7.25;99.55
12781;BME280;6454;43.304;24.344;2023-03-01T12:34:29;101037.44;;;7.25;99.97
12781;BME280;6454;43.304;24.344;2023-03-01T12:37:19;101044.53;;;7.31;98.94
12781;BME280;6454;43.304;24.344;2023-03-01T12:40:03;101033.91;;;7.25;98.49
12781;BME280;6454;43.304;24.344;2023-03-01T12:42:48;101043.97;;;7.29;99.32
12781;BME280;6454;43.304;24.344;2023-03-01T12:45:44;101047.59;;;7.35;98.92
12781;BME280;6454;43.304;24.344;2023-03-01T12:48:24;101044.72;;;7.41;98.37
12781;BME280;6454;43.304;24.344;2023-03-01T12:50:58;101039.91;;;7.43;97.86
12781;BME280;6454;43.304;24.344;2023-03-01T12:53:32;101047.75;;;7.45;97.66
12781;BME280;6454;43.304;24.344;2023-03-01T12:56:02;101033.28;;;7.34;97.04
12781;BME280;6454;43.304;24.344;2023-03-01T12:58:33;101039.81;;;7.38;97.06
12781;BME280;6454;43.304;24.344;2023-03-01T13:01:17;101012.72;;;7.17;97.10
12781;BME280;6454;43.304;24.344;2023-03-01T13:04:05;101044.00;;;7.46;96.50
12781;BME280;6454;43.304;24.344;2023-03-01T13:06:41;101037.28;;;7.48;96.03
12781;BME280;6454;43.304;24.344;2023-03-01T13:09:18;101031.56;;;7.45;96.85
12781;BME280;6454;43.304;24.344;2023-03-01T13:11:47;101034.94;;;7.52;96.56
12781;BME280;6454;43.304;24.344;2023-03-01T13:14:36;101024.38;;;7.50;96.17
12781;BME280;6454;43.304;24.344;2023-03-01T13:17:39;101028.03;;;7.44;96.72
12781;BME280;6454;43.304;24.344;2023-03-01T13:20:25;101028.03;;;7.44;97.16
12781;BME280;6454;43.304;24.344;2023-03-01T13:23:01;100976.97;;;7.09;96.17
12781;BME280;6454;43.304;24.344;2023-03-01T13:25:29;101022.91;;;7.43;95.98
12781;BME280;6454;43.304;24.344;2023-03-01T13:28:36;101025.59;;;7.43;97.32
12781;BME280;6454;43.304;24.344;2023-03-01T13:31:07;101019.59;;;7.41;96.96
12781;BME280;6454;43.304;24.344;2023-03-01T13:33:41;101019.22;;;7.32;97.14
12781;BME280;6454;43.304;24.344;2023-03-01T13:36:11;101014.94;;;7.36;97.73
12781;BME280;6454;43.304;24.344;2023-03-01T13:38:46;101006.09;;;7.41;97.55
12781;BME280;6454;43.304;24.344;2023-03-01T13:41:15;101007.28;;;7.45;96.85
12781;BME280;6454;43.304;24.344;2023-03-01T13:43:43;101009.56;;;7.36;97.02
12781;BME280;6454;43.304;24.344;2023-03-01T13:46:15;101017.72;;;7.41;97.30
12781;BME280;6454;43.304;24.344;2023-03-01T13:48:45;101003.94;;;7.38;96.61
12781;BME280;6454;43.304;24.344;2023-03-01T13:51:13;101000.41;;;7.37;96.96
12781;BME280;6454;43.304;24.344;2023-03-01T13:53:42;100996.47;;;7.45;96.93
12781;BME280;6454;43.304;24.344;2023-03-01T13:56:13;100999.50;;;7.48;96.58
12781;BME280;6454;43.304;24.344;2023-03-01T13:58:48;100963.84;;;7.30;96.09
12781;BME280;6454;43.304;24.344;2023-03-01T14:01:25;100987.22;;;7.41;96.11
12781;BME280;6454;43.304;24.344;2023-03-01T14:03:53;100991.22;;;7.38;96.67
12781;BME280;6454;43.304;24.344;2023-03-01T14:06:22;100985.34;;;7.41;96.75
12781;BME280;6454;43.304;24.344;2023-03-01T14:08:51;100944.78;;;7.20;96.39
12781;BME280;6454;43.304;24.344;2023-03-01T14:11:50;100970.06;;;7.47;95.91
12781;BME280;6454;43.304;24.344;2023-03-01T14:14:32;100983.53;;;7.47;95.63
12781;BME280;6454;43.304;24.344;2023-03-01T14:17:23;100975.72;;;7.45;96.53
12781;BME280;6454;43.304;24.344;2023-03-01T14:19:55;100980.19;;;7.56;95.41
12781;BME280;6454;43.304;24.344;2023-03-01T14:22:25;100926.03;;;7.13;95.16
12781;BME280;6454;43.304;24.344;2023-03-01T14:24:56;100978.72;;;7.49;96.07
12781;BME280;6454;43.304;24.344;2023-03-01T14:27:26;100950.16;;;7.36;96.09
12781;BME280;6454;43.304;24.344;2023-03-01T14:29:56;100986.16;;;7.58;94.75
12781;BME280;6454;43.304;24.344;2023-03-01T14:32:26;100986.00;;;7.48;95.19
12781;BME280;6454;43.304;24.344;2023-03-01T14:34:53;100924.63;;;7.10;95.90
12781;BME280;6454;43.304;24.344;2023-03-01T14:37:22;100981.50;;;7.54;95.57
12781;BME280;6454;43.304;24.344;2023-03-01T14:39:51;100983.94;;;7.55;95.19
12781;BME280;6454;43.304;24.344;2023-03-01T14:42:18;100984.19;;;7.54;95.58
12781;BME280;6454;43.304;24.344;2023-03-01T14:44:48;100987.16;;;7.52;95.66
12781;BME280;6454;43.304;24.344;2023-03-01T14:47:26;100994.25;;;7.58;94.69
12781;BME280;6454;43.304;24.344;2023-03-01T14:49:58;100985.31;;;7.58;94.01
12781;BME280;6454;43.304;24.344;2023-03-01T14:52:31;100993.88;;;7.50;95.25
12781;BME280;6454;43.304;24.344;2023-03-01T14:55:04;100995.25;;;7.52;95.10
12781;BME280;6454;43.304;24.344;2023-03-01T14:57:31;100986.16;;;7.58;94.96
12781;BME280;6454;43.304;24.344;2023-03-01T15:00:00;100985.41;;;7.63;94.76
12781;BME280;6454;43.304;24.344;2023-03-01T15:02:31;100991.41;;;7.65;93.98
12781;BME280;6454;43.304;24.344;2023-03-01T15:05:01;100971.28;;;7.39;94.51
12781;BME280;6454;43.304;24.344;2023-03-01T15:07:33;100981.41;;;7.65;94.36
12781;BME280;6454;43.304;24.344;2023-03-01T15:10:02;100984.44;;;7.69;93.56
12781;BME280;6454;43.304;24.344;2023-03-01T15:12:39;100974.38;;;7.64;93.44
12781;BME280;6454;43.304;24.344;2023-03-01T15:15:37;100970.03;;;7.63;94.96
12781;BME280;6454;43.304;24.344;2023-03-01T15:18:14;100969.53;;;7.66;94.23
12781;BME280;6454;43.304;24.344;2023-03-01T15:20:42;100965.72;;;7.62;94.48
12781;BME280;6454;43.304;24.344;2023-03-01T15:23:19;100964.06;;;7.61;94.87
12781;BME280;6454;43.304;24.344;2023-03-01T15:25:49;100971.13;;;7.62;95.03
12781;BME280;6454;43.304;24.344;2023-03-01T15:28:24;100877.38;;;7.08;95.06
12781;BME280;6454;43.304;24.344;2023-03-01T15:30:55;100964.97;;;7.67;94.48
12781;BME280;6454;43.304;24.344;2023-03-01T15:33:30;100959.22;;;7.63;94.15
12781;BME280;6454;43.304;24.344;2023-03-01T15:35:58;100963.56;;;7.64;94.92
12781;BME280;6454;43.304;24.344;2023-03-01T15:38:26;100960.13;;;7.69;95.10
12781;BME280;6454;43.304;24.344;2023-03-01T15:40:55;100963.09;;;7.67;94.80
12781;BME280;6454;43.304;24.344;2023-03-01T15:43:41;100965.84;;;7.56;94.90
12781;BME280;6454;43.304;24.344;2023-03-01T15:46:23;100965.38;;;7.59;95.50
12781;BME280;6454;43.304;24.344;2023-03-01T15:48:53;100908.88;;;7.19;94.81
12781;BME280;6454;43.304;24.344;2023-03-01T15:51:31;100969.94;;;7.58;94.99
12781;BME280;6454;43.304;24.344;2023-03-01T15:54:02;100968.63;;;7.61;95.10
12781;BME280;6454;43.304;24.344;2023-03-01T15:56:32;100960.38;;;7.51;94.98
12781;BME280;6454;43.304;24.344;2023-03-01T15:59:00;100679.63;;;5.69;94.62
12781;BME280;6454;43.304;24.344;2023-03-01T16:01:27;100973.66;;;7.52;95.30
12781;BME280;6454;43.304;24.344;2023-03-01T16:03:55;100978.31;;;7.57;95.19
12781;BME280;6454;43.304;24.344;2023-03-01T16:06:23;100976.44;;;7.57;94.84
12781;BME280;6454;43.304;24.344;2023-03-01T16:08:50;100977.50;;;7.56;95.16
12781;BME280;6454;43.304;24.344;2023-03-01T16:11:19;100980.38;;;7.50;95.63
12781;BME280;6454;43.304;24.344;2023-03-01T16:13:48;100986.31;;;7.52;95.87
12781;BME280;6454;43.304;24.344;2023-03-01T16:16:15;100987.53;;;7.61;95.36
12781;BME280;6454;43.304;24.344;2023-03-01T16:18:43;100992.38;;;7.59;94.75
12781;BME280;6454;43.304;24.344;2023-03-01T16:21:13;100988.19;;;7.51;95.24
12781;BME280;6454;43.304;24.344;2023-03-01T16:23:41;100987.72;;;7.54;96.17
12781;BME280;6454;43.304;24.344;2023-03-01T16:26:08;100882.78;;;6.91;95.78
12781;BME280;6454;43.304;24.344;2023-03-01T16:28:35;100977.31;;;7.46;96.07
12781;BME280;6454;43.304;24.344;2023-03-01T16:31:03;100980.59;;;7.48;96.89
12781;BME280;6454;43.304;24.344;2023-03-01T16:33:31;100981.66;;;7.47;96.79
12781;BME280;6454;43.304;24.344;2023-03-01T16:35:59;100974.72;;;7.51;96.42
12781;BME280;6454;43.304;24.344;2023-03-01T16:38:28;100966.94;;;7.38;97.26
12781;BME280;6454;43.304;24.344;2023-03-01T16:40:55;100965.97;;;7.44;97.98
12781;BME280;6454;43.304;24.344;2023-03-01T16:43:21;100970.31;;;7.45;97.46
12781;BME280;6454;43.304;24.344;2023-03-01T16:45:48;100961.31;;;7.40;97.86
12781;BME280;6454;43.304;24.344;2023-03-01T16:48:16;100958.34;;;7.41;98.73
12781;BME280;6454;43.304;24.344;2023-03-01T16:50:43;100959.81;;;7.32;98.94
12781;BME280;6454;43.304;24.344;2023-03-01T16:53:10;100962.53;;;7.32;99.77
12781;BME280;6454;43.304;24.344;2023-03-01T16:55:37;100964.16;;;7.33;99.42
12781;BME280;6454;43.304;24.344;2023-03-01T16:58:10;100886.34;;;6.64;98.98
12781;BME280;6454;43.304;24.344;2023-03-01T17:00:37;100967.34;;;7.30;99.35
12781;BME280;6454;43.304;24.344;2023-03-01T17:03:04;100960.41;;;7.34;99.46
12781;BME280;6454;43.304;24.344;2023-03-01T17:05:32;100954.66;;;7.31;99.47
12781;BME280;6454;43.304;24.344;2023-03-01T17:07:58;100946.25;;;7.27;99.75
12781;BME280;6454;43.304;24.344;2023-03-01T17:10:25;100955.97;;;7.28;99.97
12781;BME280;6454;43.304;24.344;2023-03-01T17:12:52;100942.25;;;7.30;99.84
12781;BME280;6454;43.304;24.344;2023-03-01T17:15:19;100934.16;;;7.30;99.65
12781;BME280;6454;43.304;24.344;2023-03-01T17:17:45;100931.03;;;7.21;100.00
12781;BME280;6454;43.304;24.344;2023-03-01T17:20:16;100923.94;;;7.15;100.00
12781;BME280;6454;43.304;24.344;2023-03-01T17:22:44;100760.69;;;6.13;100.00
12781;BME280;6454;43.304;24.344;2023-03-01T17:25:11;100921.16;;;7.10;100.00
12781;BME280;6454;43.304;24.344;2023-03-01T17:27:39;100923.75;;;7.05;100.00
12781;BME280;6454;43.304;24.344;2023-03-01T17:30:08;100897.25;;;6.85;100.00
12781;BME280;6454;43.304;24.344;2023-03-01T17:32:35;100905.00;;;6.82;100.00
12781;BME280;6454;43.304;24.344;2023-03-01T17:35:02;100932.16;;;7.08;100.00
12781;BME280;6454;43.304;24.344;2023-03-01T17:37:29;100926.28;;;7.11;100.00
12781;BME280;6454;43.304;24.344;2023-03-01T17:39:57;100932.25;;;7.13;100.00
12781;BME280;6454;43.304;24.344;2023-03-01T17:42:24;100933.34;;;7.12;100.00
12781;BME280;6454;43.304;24.344;2023-03-01T17:44:51;100907.31;;;6.90;100.00
12781;BME280;6454;43.304;24.344;2023-03-01T17:47:17;100941.16;;;7.14;100.00
12781;BME280;6454;43.304;24.344;2023-03-01T17:49:44;100930.84;;;7.11;100.00
12781;BME280;6454;43.304;24.344;2023-03-01T17:52:11;100931.13;;;7.09;100.00
12781;BME280;6454;43.304;24.344;2023-03-01T17:54:38;100965.09;;;7.10;100.00
12781;BME280;6454;43.304;24.344;2023-03-01T17:57:06;100933.66;;;7.16;100.00
12781;BME280;6454;43.304;24.344;2023-03-01T17:59:35;100900.84;;;6.91;100.00
12781;BME280;6454;43.304;24.344;2023-03-01T18:02:02;100942.22;;;7.13;100.00
12781;BME280;6454;43.304;24.344;2023-03-01T18:04:29;100925.47;;;7.11;100.00
12781;BME280;6454;43.304;24.344;2023-03-01T18:06:56;100942.91;;;7.20;100.00
12781;BME280;6454;43.304;24.344;2023-03-01T18:09:25;100929.91;;;7.17;100.00
12781;BME280;6454;43.304;24.344;2023-03-01T18:11:53;100909.75;;;7.08;100.00
12781;BME280;6454;43.304;24.344;2023-03-01T18:14:21;100935.50;;;7.15;100.00
12781;BME280;6454;43.304;24.344;2023-03-01T18:16:48;100943.38;;;7.17;100.00
12781;BME280;6454;43.304;24.344;2023-03-01T18:19:15;100966.94;;;7.22;100.00
12781;BME280;6454;43.304;24.344;2023-03-01T18:21:41;100947.56;;;7.25;100.00
12781;BME280;6454;43.304;24.344;2023-03-01T18:24:08;100951.47;;;7.17;100.00
12781;BME280;6454;43.304;24.344;2023-03-01T18:26:35;100952.06;;;7.19;100.00
12781;BME280;6454;43.304;24.344;2023-03-01T18:29:02;100948.03;;;7.22;100.00
12781;BME280;6454;43.304;24.344;2023-03-01T18:31:30;100949.34;;;7.19;100.00
12781;BME280;6454;43.304;24.344;2023-03-01T18:33:58;100948.03;;;7.22;100.00
12781;BME280;6454;43.304;24.344;2023-03-01T18:36:27;100952.38;;;7.23;100.00
12781;BME280;6454;43.304;24.344;2023-03-01T18:38:55;100892.66;;;6.86;100.00
12781;BME280;6454;43.304;24.344;2023-03-01T18:41:23;100947.78;;;7.23;100.00
12781;BME280;6454;43.304;24.344;2023-03-01T18:43:51;100712.34;;;5.50;100.00
12781;BME280;6454;43.304;24.344;2023-03-01T18:46:18;100953.25;;;7.28;100.00
12781;BME280;6454;43.304;24.344;2023-03-01T18:48:47;100841.06;;;6.32;100.00
12781;BME280;6454;43.304;24.344;2023-03-01T18:51:15;100857.03;;;6.67;100.00
12781;BME280;6454;43.304;24.344;2023-03-01T18:53:44;100949.69;;;7.23;100.00
12781;BME280;6454;43.304;24.344;2023-03-01T18:56:11;100919.09;;;7.00;100.00
12781;BME280;6454;43.304;24.344;2023-03-01T18:58:39;100943.56;;;7.27;100.00
12781;BME280;6454;43.304;24.344;2023-03-01T19:01:12;100938.16;;;7.27;100.00
12781;BME280;6454;43.304;24.344;2023-03-01T19:03:39;100949.09;;;7.21;100.00
12781;BME280;6454;43.304;24.344;2023-03-01T19:06:07;100946.72;;;7.24;100.00
12781;BME280;6454;43.304;24.344;2023-03-01T19:08:34;100947.78;;;7.23;100.00
12781;BME280;6454;43.304;24.344;2023-03-01T19:11:03;100949.84;;;7.16;100.00
12781;BME280;6454;43.304;24.344;2023-03-01T19:13:31;100957.84;;;7.11;100.00
12781;BME280;6454;43.304;24.344;2023-03-01T19:16:04;100956.41;;;7.20;100.00
12781;BME280;6454;43.304;24.344;2023-03-01T19:18:32;100960.50;;;7.23;100.00
12781;BME280;6454;43.304;24.344;2023-03-01T19:21:00;100963.28;;;7.28;100.00
12781;BME280;6454;43.304;24.344;2023-03-01T19:23:29;100971.84;;;7.25;100.00
12781;BME280;6454;43.304;24.344;2023-03-01T19:26:00;100862.53;;;6.44;100.00
12781;BME280;6454;43.304;24.344;2023-03-01T19:28:28;100961.88;;;7.25;100.00
12781;BME280;6454;43.304;24.344;2023-03-01T19:30:58;100817.81;;;6.15;100.00
12781;BME280;6454;43.304;24.344;2023-03-01T19:33:26;100836.97;;;6.30;100.00
12781;BME280;6454;43.304;24.344;2023-03-01T19:35:54;100988.25;;;7.23;100.00
12781;BME280;6454;43.304;24.344;2023-03-01T19:38:21;100986.72;;;7.27;100.00
12781;BME280;6454;43.304;24.344;2023-03-01T19:40:49;100983.22;;;7.27;100.00
12781;BME280;6454;43.304;24.344;2023-03-01T19:43:16;100987.22;;;7.24;100.00
12781;BME280;6454;43.304;24.344;2023-03-01T19:45:43;100980.78;;;7.25;100.00
12781;BME280;6454;43.304;24.344;2023-03-01T19:48:11;100974.22;;;7.21;100.00
12781;BME280;6454;43.304;24.344;2023-03-01T19:50:38;100973.72;;;7.24;100.00
12781;BME280;6454;43.304;24.344;2023-03-01T19:53:05;100977.97;;;7.20;100.00
12781;BME280;6454;43.304;24.344;2023-03-01T19:55:35;100730.25;;;5.56;100.00
12781;BME280;6454;43.304;24.344;2023-03-01T19:58:03;100986.16;;;7.25;100.00
12781;BME280;6454;43.304;24.344;2023-03-01T20:00:30;100981.00;;;7.24;100.00
12781;BME280;6454;43.304;24.344;2023-03-01T20:02:57;100986.16;;;7.25;100.00
12781;BME280;6454;43.304;24.344;2023-03-01T20:05:24;100990.97;;;7.23;100.00
12781;BME280;6454;43.304;24.344;2023-03-01T20:07:53;100852.59;;;6.44;100.00
12781;BME280;6454;43.304;24.344;2023-03-01T20:10:22;100994.34;;;7.30;100.00
12781;BME280;6454;43.304;24.344;2023-03-01T20:12:50;100987.31;;;7.29;100.00